Langworthy, Iowa
Current Conditions -  °F | °C
As of 1:15 PM on Saturday 20 Dec 2014 (Local Time) from KMXO Reporting Station
Haze Haze  
Wind Chill: 26°   Ceiling: 700
Heat Index: 32°   Visibility: 2.5mi
Dew Point: 32°   Wind: 6mph
Humidity: 100%   Direction: 130°SE
Pressure: 30.19"   Gusts: NA
Location:  42.19°N, 91.22°W
Report Text: KMXO 201915Z AUTO 13005KT 2 1/2SM BR OVC007 M00/M00 A3019 RMK AO2
Loading
Personal Weather Stations






























Interactive Weather Map New forecast layout! Learn more

10-Day Weather Forecast

Advertisements
Track Severe Weather on mobile